Map

Track Data

SID SEASON NUMBER BASIN SUBBASIN NAME ISO_TIME NATURE LAT LON WMO_WIND WMO_PRES WMO_AGENCY TRACK_TYPE DIST2LAND LANDFALL IFLAG USA_AGENCY USA_ATCF_ID USA_LAT USA_LON USA_RECORD USA_STATUS USA_WIND USA_PRES USA_SSHS USA_R34_NE USA_R34_SE USA_R34_SW USA_R34_NW USA_R50_NE USA_R50_SE USA_R50_SW USA_R50_NW USA_R64_NE USA_R64_SE USA_R64_SW USA_R64_NW USA_POCI USA_ROCI USA_RMW USA_EYE TOKYO_LAT TOKYO_LON TOKYO_GRADE TOKYO_WIND TOKYO_PRES TOKYO_R50_DIR TOKYO_R50_LONG TOKYO_R50_SHORT TOKYO_R30_DIR TOKYO_R30_LONG TOKYO_R30_SHORT TOKYO_LAND CMA_LAT CMA_LON CMA_CAT CMA_WIND CMA_PRES HKO_LAT HKO_LON HKO_CAT HKO_WIND HKO_PRES NEWDELHI_LAT NEWDELHI_LON NEWDELHI_GRADE NEWDELHI_WIND NEWDELHI_PRES NEWDELHI_CI NEWDELHI_DP NEWDELHI_POCI REUNION_LAT REUNION_LON REUNION_TYPE REUNION_WIND REUNION_PRES REUNION_TNUM REUNION_CI REUNION_RMW REUNION_R34_NE REUNION_R34_SE REUNION_R34_SW REUNION_R34_NW REUNION_R50_NE REUNION_R50_SE REUNION_R50_SW REUNION_R50_NW REUNION_R64_NE REUNION_R64_SE REUNION_R64_SW REUNION_R64_NW BOM_LAT BOM_LON BOM_TYPE BOM_WIND BOM_PRES BOM_TNUM BOM_CI BOM_RMW BOM_R34_NE BOM_R34_SE BOM_R34_SW BOM_R34_NW BOM_R50_NE BOM_R50_SE BOM_R50_SW BOM_R50_NW BOM_R64_NE BOM_R64_SE BOM_R64_SW BOM_R64_NW BOM_ROCI BOM_POCI BOM_EYE BOM_POS_METHOD BOM_PRES_METHOD NADI_LAT NADI_LON NADI_CAT NADI_WIND NADI_PRES WELLINGTON_LAT WELLINGTON_LON WELLINGTON_WIND WELLINGTON_PRES DS824_LAT DS824_LON DS824_STAGE DS824_WIND DS824_PRES TD9636_LAT TD9636_LON TD9636_STAGE TD9636_WIND TD9636_PRES TD9635_LAT TD9635_LON TD9635_WIND TD9635_PRES TD9635_ROCI NEUMANN_LAT NEUMANN_LON NEUMANN_CLASS NEUMANN_WIND NEUMANN_PRES MLC_LAT MLC_LON MLC_CLASS MLC_WIND MLC_PRES USA_GUST BOM_GUST BOM_GUST_PER REUNION_GUST REUNION_GUST_PER USA_SEAHGT USA_SEARAD_NE USA_SEARAD_SE USA_SEARAD_SW USA_SEARAD_NW STORM_SPEED STORM_DIR
1861011S17411 1861 2 SI MM NOT_NAMED 1861-01-11 06:00:00 NR -17.2000 51.1000 spur-split 145 145 __________O___ -1 -17.2000 51.1000 7 16 161
1861011S17411 1861 2 SI MM NOT_NAMED 1861-01-11 09:00:00 NR -17.9364 51.3679 spur-split 202 202 __________P___ -1 -17.9364 51.3679 7 15 160
1861011S17411 1861 2 SI MM NOT_NAMED 1861-01-11 12:00:00 NR -18.6482 51.6496 spur-split 236 236 __________P___ -1 -18.6482 51.6496 7 15 158
1861011S17411 1861 2 SI MM NOT_NAMED 1861-01-11 15:00:00 NR -19.3109 51.9564 spur-split 300 300 __________P___ -1 -19.3109 51.9564 7 14 154
1861011S17411 1861 2 SI MM NOT_NAMED 1861-01-11 18:00:00 NR -19.9000 52.3000 spur-split 330 271 __________O___ -1 -19.9000 52.3000 7 13 148
1861011S17411 1861 2 SI MM NOT_NAMED 1861-01-11 21:00:00 NR -20.4014 52.6921 spur-split 271 220 __________P___ -1 -20.4014 52.6921 7 12 140
1861011S17411 1861 2 SI MM NOT_NAMED 1861-01-12 00:00:00 NR -20.8431 53.1463 spur-split 220 166 __________P___ -1 -20.8431 53.1463 7 13 133
1861011S17411 1861 2 SI MM NOT_NAMED 1861-01-12 03:00:00 NR -21.2634 53.6772 spur-split 157 112 __________P___ -1 -21.2634 53.6772 7 14 129
1861011S17411 1861 2 SI MM NOT_NAMED 1861-01-12 06:00:00 NR -21.7000 54.3000 spur-split 112 93 __________O___ -1 -21.7000 54.3000 7 16 127
1861011S17411 1861 2 SI MM NOT_NAMED 1861-01-12 09:00:00 NR -22.2162 55.0270 spur-split 105 102 __________P___ -1 -22.2162 55.0270 7 18 126
1861011S17411 1861 2 SI MM NOT_NAMED 1861-01-12 12:00:00 NR -22.7507 55.8444 spur-split 157 157 __________P___ -1 -22.7507 55.8444 7 19 124
1861011S17411 1861 2 SI MM NOT_NAMED 1861-01-12 15:00:00 NR -23.2847 56.7149 spur-split 240 240 __________P___ -1 -23.2847 56.7149 7 19 123
1861011S17411 1861 2 SI MM NOT_NAMED 1861-01-12 18:00:00 NR -23.8000 57.6000 spur-split 335 335 __________O___ -1 -23.8000 57.6000 7 19 123
1861011S17411 1861 2 SI MM NOT_NAMED 1861-01-12 21:00:00 NR -24.2859 58.4284 spur-split 428 428 __________P___ -1 -24.2859 58.4284 7 18 122
1861011S17411 1861 2 SI MM NOT_NAMED 1861-01-13 00:00:00 NR -24.7497 59.2649 spur-split 497 497 __________P___ -1 -24.7497 59.2649 7 18 120
1861011S17411 1861 2 SI MM NOT_NAMED 1861-01-13 03:00:00 NR -25.1888 60.1190 spur-split 580 580 __________P___ -1 -25.1888 60.1190 7 18 118
1861011S17411 1861 2 SI MM NOT_NAMED 1861-01-13 06:00:00 NR -25.6000 61.0000 spur-split 662 662 __________O___ -1 -25.6000 61.0000 7 18 116
1861011S17411 1861 2 SI MM NOT_NAMED 1861-01-13 09:00:00 NR -25.9779 61.9275 spur-split 749 749 __________P___ -1 -25.9779 61.9275 7 18 113
1861011S17411 1861 2 SI MM NOT_NAMED 1861-01-13 12:00:00 NR -26.3289 62.8805 spur-split 837 837 __________P___ -1 -26.3289 62.8805 7 19 112
1861011S17411 1861 2 SI MM NOT_NAMED 1861-01-13 15:00:00 NR -26.6653 63.8432 spur-split 930 930 __________P___ -1 -26.6653 63.8432 7 18 111
1861011S17411 1861 2 SI MM NOT_NAMED 1861-01-13 18:00:00 NR -27.0000 64.8000 spur-split 1023 1023 __________O___ -1 -27.0000 64.8000 7 18 112
1861011S17411 1861 2 SI MM NOT_NAMED 1861-01-13 21:00:00 NR -27.3472 65.7182 spur-split 1112 1112 __________P___ -1 -27.3472 65.7182 7 18 113
1861011S17411 1861 2 SI MM NOT_NAMED 1861-01-14 00:00:00 NR -27.6960 66.6307 spur-split 1208 1208 __________P___ -1 -27.6960 66.6307 7 18 113
1861011S17411 1861 2 SI MM NOT_NAMED 1861-01-14 03:00:00 NR -28.0470 67.5528 spur-split 1306 1306 __________P___ -1 -28.0470 67.5528 7 18 113
1861011S17411 1861 2 SI MM NOT_NAMED 1861-01-14 06:00:00 NR -28.4000 68.5000 spur-split 1403 1403 __________O___ -1 -28.4000 68.5000 7 19 113
1861011S17411 1861 2 SI MM NOT_NAMED 1861-01-14 09:00:00 NR -28.7658 69.5124 spur-split 1508 1508 __________P___ -1 -28.7658 69.5124 7 19 112
1861011S17411 1861 2 SI MM NOT_NAMED 1861-01-14 12:00:00 NR -29.1295 70.5498 spur-split 1607 1607 __________P___ -1 -29.1295 70.5498 7 19 111
1861011S17411 1861 2 SI MM NOT_NAMED 1861-01-14 15:00:00 NR -29.4783 71.5874 spur-split 1721 1721 __________P___ -1 -29.4783 71.5874 7 19 111
1861011S17411 1861 2 SI MM NOT_NAMED 1861-01-14 18:00:00 NR -29.8000 72.6000 spur-split 1820 1820 __________O___ -1 -29.8000 72.6000 7 18 109
1861011S17411 1861 2 SI MM NOT_NAMED 1861-01-14 21:00:00 NR -30.0865 73.5680 spur-split 1920 1920 __________P___ -1 -30.0865 73.5680 7 17 108
1861011S17411 1861 2 SI MM NOT_NAMED 1861-01-15 00:00:00 NR -30.3432 74.4982 spur-split 2006 2006 __________P___ -1 -30.3432 74.4982 7 17 107
1861011S17411 1861 2 SI MM NOT_NAMED 1861-01-15 03:00:00 NR -30.5784 75.4042 spur-split 2095 2089 __________P___ -1 -30.5784 75.4042 7 16 106
1861011S17411 1861 2 SI MM NOT_NAMED 1861-01-15 06:00:00 NR -30.8000 76.3000 spur-split 2093 __________O___ -1 -30.8000 76.3000 7 16 106

About IBTrACS Database

This database is a web-friendly format of International Best Track Archive for Climate Stewardship (IBTrACS), a global best track data archive curated by NOAA dating back to 1842.

Updated: 2021-12-03